Flight Track Log - Related Links

Times and Time Zones

All times are in EDT time to prevent confusion due to time zone crossing. See the KLM1072 flight status page for this flight to view local times or setup timezone preferences in your user account.

Time Position Orientation Groundspeed Altitude Reporting Facility
EDT Latitude Longitude Course Direction KTS MPH feet Rate Location/Type
Wed 01:07:00 AM 53.2226 -1.1891 101° East  Level Estimated
Wed 01:08:00 AM 53.2121 -1.1059 102° East  Level Estimated
Wed 01:09:00 AM 53.2016 -1.0227 102° East  Level Estimated
Wed 01:10:00 AM 53.1910 -0.9395 102° East  Level Estimated
Wed 01:11:00 AM 53.1803 -0.8564 102° East  Level Estimated
Wed 01:12:00 AM 53.1696 -0.7733 102° East  Level Estimated
Wed 01:13:00 AM 53.1588 -0.6903 102° East  Level Estimated
Wed 01:14:00 AM 53.1480 -0.6073 102° East  Level Estimated
Wed 01:15:00 AM 53.1371 -0.5243 102° East  Level Estimated
Wed 01:16:00 AM 53.1261 -0.4414 102° East  Level Estimated
Wed 01:17:00 AM 53.1151 -0.3586 102° East  Level Estimated
Wed 01:18:00 AM 53.1040 -0.2757 103° East  Level Estimated
Wed 01:19:00 AM 53.0929 -0.1929 103° East  Level Estimated
Wed 01:20:00 AM 53.0817 -0.1102 103° East  Level Estimated
Wed 01:21:00 AM 53.0705 -0.0275 103° East  Level Estimated
Wed 01:22:00 AM 53.0592 0.0552 103° East  Level Estimated
Wed 01:23:00 AM 53.0478 0.1378 103° East  Level Estimated
Wed 01:24:00 AM 53.0364 0.2203 103° East  Level Estimated
Wed 01:25:00 AM 53.0249 0.3029 103° East  Level Estimated
Wed 01:26:00 AM 53.0134 0.3853 103° East  Level Estimated
Wed 01:27:00 AM 53.0018 0.4678 103° East  Level Estimated
Wed 01:28:00 AM 52.9902 0.5502 103° East  Level Estimated
Wed 01:29:00 AM 52.9704 0.6890 103° East  Level Estimated
Wed 01:30:00 AM 52.9505 0.8277 103° East  Level Estimated
Wed 01:31:00 AM 52.9304 0.9663 103° East  Level Estimated
Wed 01:32:00 AM 52.9101 1.1048 104° East  Level Estimated
Wed 01:33:00 AM 52.8897 1.2431 104° East  Level Estimated
Wed 01:34:00 AM 52.8691 1.3813 104° East  Level Estimated
Wed 01:35:00 AM 52.8484 1.5193 104° East  Level Estimated
Wed 01:36:00 AM 52.8275 1.6573 104° East  Level Estimated
Wed 01:37:00 AM 52.8065 1.7950 104° East  Level Estimated
Wed 01:38:00 AM 52.7853 1.9327 104° East  Level Estimated
Wed 01:39:00 AM 52.7639 2.0702 104° East  Level Estimated
Wed 01:40:00 AM 52.7424 2.2076 104° East  Level Estimated
Wed 01:41:00 AM 52.7207 2.3449 105° East  Level Estimated
Wed 01:42:00 AM 52.6989 2.4820 105° East  Level Estimated
Wed 01:43:00 AM 52.6769 2.6190 105° East  Level Estimated
Wed 01:44:00 AM 52.6547 2.7558 105° East  Level Estimated
Wed 01:45:00 AM 52.6324 2.8925 105° East  Level Estimated
Wed 01:46:00 AM 52.6099 3.0291 105° East  Level Estimated
Wed 01:47:00 AM 52.5873 3.1655 105° East  Level Estimated
Wed 01:48:00 AM 52.5645 3.3018 105° East  Level Estimated
Wed 01:49:00 AM 52.5416 3.4379 105° East  Level Estimated
Wed 01:50:00 AM 52.5185 3.5739 106° East  Level Estimated
Wed 01:51:00 AM 52.4957 3.7071 106° East  Level Estimated
Wed 01:52:00 AM 52.4727 3.8402 106° East  Level Estimated
Wed 01:53:00 AM 52.4496 3.9732 106° East  Level Estimated
Wed 01:54:00 AM 52.4264 4.1060 106° East  Level Estimated
Wed 01:55:00 AM 52.4030 4.2387 106° East  Level Estimated
Wed 01:56:00 AM 52.3794 4.3712 106° East  Level Estimated
Wed 01:57:00 AM 52.3557 4.5036 106° East  Level Estimated
Wed 01:58:00 AM 52.3319 4.6359 106° East  Level Estimated
Wed 01:59:00 AM 52.3086 4.7639 106° East  Level Estimated
Wed 02:00:00 AM 52.3086 4.7639 348° North  Level Estimated
Wed 02:01:00 AM 52.3086 4.7639 348° North  Level Estimated
Wed 02:02:00 AM 52.3086 4.7639 348° North  Level Estimated

Login

Don't have an account? Register now (free) for customized features, flight alerts, and more!